Time;durP1;ratioP1;P1;durP2;ratioP2;P2;SDS_P1;SDS_P2;PMS_P1;PMS_P2;Temp;Humidity;BMP_temperature;BMP_pressure;BME280_temperature;BME280_humidity;BME280_pressure;Samples;Min_cycle;Max_cycle;Signal;HPM_P1;HPM_P2
2021/07/23 00:01:38;;;;;;;1.80;1.10;;;;;;;15.57;55.57;99162.84;5031760;28;20026;-53
2021/07/23 00:04:04;;;;;;;5.38;1.45;;;;;;;15.53;55.43;99151.56;5032099;28;20061;-49
2021/07/23 00:06:29;;;;;;;2.15;1.20;;;;;;;15.49;55.91;99151.06;5031067;28;20029;-50
2021/07/23 00:08:55;;;;;;;3.70;1.17;;;;;;;15.42;56.29;99150.06;5031686;28;20137;-52
2021/07/23 00:11:20;;;;;;;8.90;1.23;;;;;;;15.42;55.98;99151.91;5031598;28;20112;-51
2021/07/23 00:13:47;;;;;;;1.67;1.20;;;;;;;15.42;56.14;99158.16;5032066;28;20037;-51
2021/07/23 00:16:13;;;;;;;4.15;1.15;;;;;;;15.35;56.41;99155.28;5031192;28;20025;-51
2021/07/23 00:18:38;;;;;;;3.38;1.20;;;;;;;15.39;56.71;99157.66;5031467;28;20032;-48
2021/07/23 00:21:04;;;;;;;3.78;1.20;;;;;;;15.36;56.67;99161.56;5031616;28;20021;-49
2021/07/23 00:23:29;;;;;;;2.10;1.20;;;;;;;15.28;56.82;99146.22;5031741;28;20109;-51
2021/07/23 00:25:55;;;;;;;1.80;1.00;;;;;;;15.30;56.90;99148.72;5030879;28;20120;-51
2021/07/23 00:28:23;;;;;;;4.43;1.23;;;;;;;15.28;56.94;99151.63;5046078;28;20025;-53
2021/07/23 00:30:48;;;;;;;4.22;1.27;;;;;;;15.26;57.13;99156.34;5031177;28;20543;-52
2021/07/23 00:33:14;;;;;;;3.08;1.45;;;;;;;15.24;57.16;99144.03;5031305;28;20083;-52
2021/07/23 00:35:39;;;;;;;4.00;1.50;;;;;;;15.25;57.22;99157.34;5031018;28;20543;-50
2021/07/23 00:38:05;;;;;;;2.83;1.50;;;;;;;15.26;57.23;99155.47;5029318;28;20125;-47
2021/07/23 00:40:33;;;;;;;2.85;1.30;;;;;;;15.24;56.92;99155.66;5031597;28;20408;-52
2021/07/23 00:42:59;;;;;;;6.57;1.30;;;;;;;15.05;57.46;99119.97;5051041;28;20443;-54
2021/07/23 00:45:24;;;;;;;2.10;1.30;;;;;;;15.15;57.50;99135.97;5050800;28;20128;-52
2021/07/23 00:47:55;;;;;;;1.67;1.10;;;;;;;15.25;57.36;99149.25;5050546;28;20103;-53
2021/07/23 00:50:20;;;;;;;2.53;1.40;;;;;;;15.17;57.46;99142.03;5050886;28;20025;-54
2021/07/23 00:52:46;;;;;;;2.10;1.13;;;;;;;15.17;57.76;99135.78;5050835;28;20048;-54
2021/07/23 00:55:13;;;;;;;5.22;1.27;;;;;;;15.20;57.88;99146.25;5050419;28;20039;-55
2021/07/23 00:57:41;;;;;;;2.45;1.10;;;;;;;15.19;57.80;99149.91;5050848;28;20074;-53
2021/07/23 01:00:07;;;;;;;2.58;1.10;;;;;;;15.15;58.17;99149.44;5050669;28;20036;-54
2021/07/23 01:02:33;;;;;;;1.65;1.05;;;;;;;15.04;57.96;99122.81;5050404;28;20059;-53
2021/07/23 01:04:58;;;;;;;1.48;1.00;;;;;;;15.13;58.17;99135.28;5050341;28;20040;-52
2021/07/23 01:07:24;;;;;;;2.50;1.20;;;;;;;14.98;58.17;99101.94;5050463;28;20040;-51
2021/07/23 01:09:49;;;;;;;1.20;0.95;;;;;;;15.12;58.64;99141.69;5050541;28;20029;-48
2021/07/23 01:12:16;;;;;;;3.05;1.20;;;;;;;15.12;58.46;99136.31;5050080;28;20029;-53
2021/07/23 01:14:42;;;;;;;2.13;1.17;;;;;;;15.07;58.79;99130.56;5050174;28;20029;-51
2021/07/23 01:17:08;;;;;;;3.13;1.17;;;;;;;15.08;59.04;99134.97;5051052;28;20041;-51
2021/07/23 01:19:51;;;;;;;1.60;1.02;;;;;;;15.17;58.17;99138.47;5050097;28;20025;-52
2021/07/23 01:22:20;;;;;;;4.53;1.00;;;;;;;15.10;58.90;99137.47;5050296;28;20366;-52
2021/07/23 01:24:46;;;;;;;3.60;1.10;;;;;;;15.03;58.89;99122.00;5050640;28;20025;-49
2021/07/23 01:27:12;;;;;;;4.13;1.05;;;;;;;15.01;59.07;99121.31;5048752;28;20108;-49
2021/07/23 01:29:37;;;;;;;1.55;1.10;;;;;;;15.03;59.21;99116.59;5050643;28;20178;-49
2021/07/23 01:32:03;;;;;;;2.72;1.20;;;;;;;15.05;59.14;99113.72;5050358;28;20033;-52
2021/07/23 01:34:29;;;;;;;1.85;1.10;;;;;;;15.04;59.03;99107.50;5050154;28;20480;-52
2021/07/23 01:36:54;;;;;;;2.45;1.00;;;;;;;15.09;58.92;99119.63;5049925;28;20021;-51
2021/07/23 01:39:20;;;;;;;4.10;0.90;;;;;;;15.10;59.06;99108.69;5049688;28;20025;-50
2021/07/23 01:41:46;;;;;;;1.15;1.02;;;;;;;15.13;58.97;99112.88;5050239;28;20035;-52
2021/07/23 01:44:11;;;;;;;4.15;1.15;;;;;;;15.11;58.99;99106.81;5049969;28;20029;-54
2021/07/23 01:46:37;;;;;;;3.33;0.95;;;;;;;15.13;59.18;99111.03;5047649;28;20099;-51
2021/07/23 01:49:02;;;;;;;6.15;1.10;;;;;;;15.17;58.87;99111.50;5048894;28;20043;-51
2021/07/23 01:51:28;;;;;;;2.92;1.10;;;;;;;15.20;58.77;99116.59;5050165;28;20039;-51
2021/07/23 01:53:53;;;;;;;1.67;1.10;;;;;;;15.23;58.70;99107.28;5052360;28;20465;-49
2021/07/23 01:56:19;;;;;;;2.75;1.20;;;;;;;15.27;58.41;99106.78;5053876;28;20373;-49
2021/07/23 01:58:44;;;;;;;3.22;1.20;;;;;;;15.29;58.41;99107.44;5054356;28;20029;-48
2021/07/23 02:01:10;;;;;;;2.95;1.08;;;;;;;15.33;57.98;99103.38;5054423;28;20052;-48
2021/07/23 02:03:35;;;;;;;1.20;0.95;;;;;;;15.36;58.07;99104.91;5053615;28;20384;-49
2021/07/23 02:06:01;;;;;;;1.73;1.20;;;;;;;15.38;57.93;99096.63;5053900;28;20127;-47
2021/07/23 02:08:26;;;;;;;4.15;1.30;;;;;;;15.44;57.61;99098.66;5054030;28;20052;-51
2021/07/23 02:10:52;;;;;;;2.00;1.00;;;;;;;15.44;57.97;99106.75;5053802;28;20465;-45
2021/07/23 02:13:18;;;;;;;1.58;1.00;;;;;;;15.52;57.74;99106.72;5053391;28;20043;-49
2021/07/23 02:15:44;;;;;;;6.03;1.30;;;;;;;15.58;57.67;99108.69;5054200;28;20033;-51
2021/07/23 02:18:10;;;;;;;3.22;1.10;;;;;;;15.59;57.54;99105.00;5054000;28;20392;-48
2021/07/23 02:20:36;;;;;;;2.28;0.93;;;;;;;15.66;57.34;99105.13;5052604;28;20028;-50
2021/07/23 02:23:02;;;;;;;2.83;1.00;;;;;;;15.78;56.96;99095.63;5053164;28;20029;-52
2021/07/23 02:25:30;;;;;;;2.60;0.98;;;;;;;15.93;56.50;99094.94;5053670;28;20060;-50
2021/07/23 02:27:56;;;;;;;2.78;1.02;;;;;;;16.09;56.07;99094.00;5053500;28;20029;-46
2021/07/23 02:30:21;;;;;;;2.92;1.30;;;;;;;16.21;55.70;99092.56;5053716;28;20143;-49
2021/07/23 02:32:47;;;;;;;1.90;1.20;;;;;;;16.39;55.04;99094.13;5053074;28;20127;-48
2021/07/23 02:35:13;;;;;;;4.20;1.20;;;;;;;16.51;55.16;99086.44;5053511;28;20130;-48
2021/07/23 02:37:38;;;;;;;3.42;1.08;;;;;;;16.69;54.57;99086.16;5053476;28;20036;-48
2021/07/23 02:40:05;;;;;;;1.50;1.08;;;;;;;16.81;53.98;99083.84;5053430;28;20044;-46
2021/07/23 02:42:30;;;;;;;5.03;1.13;;;;;;;16.96;53.58;99083.03;5053067;28;20032;-47
2021/07/23 02:44:56;;;;;;;3.85;1.20;;;;;;;17.03;53.37;99084.03;5052862;28;20025;-47
2021/07/23 02:47:21;;;;;;;2.75;1.20;;;;;;;17.03;53.24;99079.44;5053364;28;20029;-50
2021/07/23 02:49:47;;;;;;;1.33;0.98;;;;;;;17.05;53.08;99084.66;5052909;28;20025;-48
2021/07/23 02:52:12;;;;;;;1.95;1.10;;;;;;;17.05;53.46;99071.97;5052944;28;20077;-48
2021/07/23 02:54:38;;;;;;;1.33;1.00;;;;;;;17.10;52.98;99073.28;5052946;28;20028;-53
2021/07/23 02:57:03;;;;;;;3.20;1.10;;;;;;;17.10;53.07;99073.28;5052583;28;20184;-49
2021/07/23 02:59:29;;;;;;;4.18;1.23;;;;;;;17.08;53.27;99058.06;5052610;28;20083;-51
2021/07/23 03:01:54;;;;;;;4.07;1.10;;;;;;;17.15;53.25;99068.19;5052343;28;20036;-51
2021/07/23 03:04:20;;;;;;;7.45;1.13;;;;;;;17.19;52.92;99067.59;5051338;28;20473;-46
2021/07/23 03:06:45;;;;;;;5.90;1.10;;;;;;;17.24;52.75;99067.06;5052910;28;20033;-49
2021/07/23 03:09:10;;;;;;;2.88;0.98;;;;;;;17.26;52.77;99061.47;5052610;28;20033;-45
2021/07/23 03:11:36;;;;;;;3.13;0.75;;;;;;;17.41;52.43;99066.88;5052501;28;20122;-49
2021/07/23 03:14:02;;;;;;;2.83;1.00;;;;;;;17.47;52.11;99058.00;5052696;28;20075;-49
2021/07/23 03:16:27;;;;;;;3.45;1.27;;;;;;;17.61;51.89;99054.44;5052019;28;20028;-48
2021/07/23 03:18:53;;;;;;;2.90;1.10;;;;;;;17.83;51.43;99062.59;5052517;28;20166;-49
2021/07/23 03:21:22;;;;;;;4.07;1.10;;;;;;;18.10;50.97;99053.97;5052351;28;20059;-50
2021/07/23 03:23:48;;;;;;;2.97;1.10;;;;;;;18.32;50.40;99052.97;5052490;28;20029;-48
2021/07/23 03:26:13;;;;;;;4.20;1.23;;;;;;;18.57;49.47;99046.31;5052627;28;20025;-48
2021/07/23 03:28:39;;;;;;;4.88;1.20;;;;;;;18.79;48.96;99033.56;5052488;28;20540;-52
2021/07/23 03:31:04;;;;;;;3.03;1.20;;;;;;;19.16;48.06;99039.66;5051963;28;20041;-48
2021/07/23 03:33:30;;;;;;;5.03;1.30;;;;;;;19.79;46.63;99040.59;5051966;28;20066;-51
2021/07/23 03:35:55;;;;;;;4.88;1.30;;;;;;;20.54;44.45;99030.75;5052303;28;20128;-50
2021/07/23 03:38:21;;;;;;;2.55;1.45;;;;;;;21.23;42.75;99026.72;5051995;28;20037;-51
2021/07/23 03:40:46;;;;;;;3.38;1.30;;;;;;;21.77;40.99;99002.00;5051929;28;20061;-48
2021/07/23 03:43:12;;;;;;;1.65;1.20;;;;;;;22.51;39.38;99015.19;5052346;28;20471;-51
2021/07/23 03:45:37;;;;;;;5.75;1.33;;;;;;;23.14;38.11;99014.41;5052180;28;20025;-52
2021/07/23 03:48:03;;;;;;;2.78;1.30;;;;;;;23.75;37.15;99009.09;5051401;28;20029;-51
2021/07/23 03:50:28;;;;;;;1.75;1.10;;;;;;;24.42;35.57;99005.41;5051595;28;20029;-52
2021/07/23 03:52:54;;;;;;;2.20;0.95;;;;;;;25.19;33.87;99011.06;5051926;28;20422;-50
2021/07/23 03:55:20;;;;;;;3.83;1.33;;;;;;;25.89;32.46;98990.03;5051802;28;20108;-49
2021/07/23 03:57:45;;;;;;;2.78;0.98;;;;;;;26.72;31.00;99010.66;5051604;28;20111;-52
2021/07/23 04:00:11;;;;;;;3.33;1.25;;;;;;;27.44;29.50;99013.63;5051583;28;20025;-49
2021/07/23 04:02:37;;;;;;;3.90;1.00;;;;;;;28.06;28.72;99005.25;5050633;28;20024;-47
2021/07/23 04:05:03;;;;;;;3.38;1.08;;;;;;;28.60;27.70;99003.56;5051725;28;20159;-50
2021/07/23 04:07:31;;;;;;;3.63;1.38;;;;;;;29.10;27.04;98998.69;5050943;28;20032;-53
2021/07/23 04:09:57;;;;;;;4.80;1.40;;;;;;;29.69;26.12;98995.94;5051098;28;20060;-52
2021/07/23 04:12:23;;;;;;;3.00;1.08;;;;;;;30.47;24.64;98992.22;5051343;28;20029;-50
2021/07/23 04:14:48;;;;;;;4.28;0.98;;;;;;;31.08;23.81;98993.22;5051384;28;20039;-47
2021/07/23 04:17:14;;;;;;;4.95;1.30;;;;;;;31.66;22.81;98993.88;5050320;28;20039;-53
2021/07/23 04:19:39;;;;;;;2.35;1.23;;;;;;;32.16;22.11;98993.03;5047052;28;20036;-51
2021/07/23 04:22:05;;;;;;;3.97;1.25;;;;;;;32.56;21.38;98990.28;5050983;28;20029;-51
2021/07/23 04:24:30;;;;;;;3.13;0.90;;;;;;;33.02;21.28;98987.03;5050964;28;20055;-53
2021/07/23 04:26:57;;;;;;;4.20;1.05;;;;;;;33.40;20.47;98978.03;5050209;28;20032;-50
2021/07/23 04:29:23;;;;;;;3.78;1.20;;;;;;;33.67;19.86;98982.16;5050286;28;20103;-48
2021/07/23 04:31:49;;;;;;;3.42;1.13;;;;;;;34.13;19.72;98982.63;5049897;28;20032;-48
2021/07/23 04:34:14;;;;;;;2.15;1.00;;;;;;;34.24;19.42;98986.88;5051161;28;20480;-50
2021/07/23 04:36:40;;;;;;;2.63;1.15;;;;;;;33.46;20.52;98981.56;5050684;28;20052;-52
2021/07/23 04:39:05;;;;;;;4.38;1.38;;;;;;;32.15;21.80;98978.38;5050357;28;20044;-53
2021/07/23 04:41:31;;;;;;;3.38;1.08;;;;;;;30.71;23.66;98986.16;5051013;28;20055;-55
2021/07/23 04:43:56;;;;;;;4.28;1.13;;;;;;;29.28;25.46;98980.03;5049490;28;20077;-53
2021/07/23 04:46:22;;;;;;;4.50;1.17;;;;;;;28.19;27.52;98984.78;5050595;28;20021;-53
2021/07/23 04:48:47;;;;;;;4.97;1.80;;;;;;;27.27;28.98;98988.09;5050786;28;20479;-51
2021/07/23 04:51:13;;;;;;;3.47;1.52;;;;;;;26.43;30.54;98979.75;5049326;28;20429;-52
2021/07/23 04:53:38;;;;;;;4.47;1.30;;;;;;;25.67;31.20;98976.16;5050394;28;20036;-50
2021/07/23 04:56:05;;;;;;;3.13;1.50;;;;;;;25.15;32.69;98977.00;5050513;28;20025;-52
2021/07/23 04:58:31;;;;;;;5.18;1.70;;;;;;;24.68;33.76;98975.94;5050136;28;20036;-51
2021/07/23 05:00:57;;;;;;;2.55;1.40;;;;;;;24.25;34.36;98972.44;5050149;28;20047;-50
2021/07/23 05:03:36;;;;;;;6.03;1.35;;;;;;;24.16;34.32;98980.16;5050707;28;20472;-51
2021/07/23 05:06:07;;;;;;;4.03;1.67;;;;;;;23.57;35.58;98978.00;5050551;28;20064;-52
2021/07/23 05:08:37;;;;;;;2.25;1.40;;;;;;;23.21;36.09;98982.41;5050838;28;20060;-54
2021/07/23 05:11:07;;;;;;;4.22;1.27;;;;;;;22.87;37.02;98971.00;5050763;28;20045;-51
2021/07/23 05:13:34;;;;;;;5.55;1.45;;;;;;;22.72;37.17;98971.38;5050593;28;20036;-52
2021/07/23 05:16:00;;;;;;;4.20;1.10;;;;;;;22.50;37.49;98942.63;5050536;28;20068;-49
2021/07/23 05:18:27;;;;;;;5.90;1.40;;;;;;;22.83;37.33;98964.34;5050442;28;20068;-50
2021/07/23 05:20:53;;;;;;;1.83;1.10;;;;;;;23.42;35.98;98955.72;5050560;28;20033;-49
2021/07/23 05:23:18;;;;;;;3.88;1.40;;;;;;;24.02;35.27;98954.06;5050868;28;20040;-47
2021/07/23 05:25:44;;;;;;;5.65;1.45;;;;;;;24.16;34.74;98950.06;5049944;28;20369;-49
2021/07/23 05:28:09;;;;;;;6.68;1.40;;;;;;;24.12;34.80;98948.88;5051617;28;20029;-53
2021/07/23 05:30:35;;;;;;;4.85;1.42;;;;;;;24.02;35.00;98945.88;5054890;28;20052;-52
2021/07/23 05:33:00;;;;;;;3.90;1.13;;;;;;;23.85;35.23;98935.56;5054516;28;20065;-52
2021/07/23 05:35:26;;;;;;;6.40;1.58;;;;;;;23.94;35.50;98938.81;5053813;28;20048;-50
2021/07/23 05:37:51;;;;;;;5.38;1.50;;;;;;;24.19;34.96;98940.56;5054399;28;20481;-49
2021/07/23 05:40:17;;;;;;;2.28;1.23;;;;;;;24.65;34.10;98938.91;5054355;28;20044;-53
2021/07/23 05:42:43;;;;;;;7.75;1.52;;;;;;;25.14;32.96;98931.53;5053887;28;20123;-53
2021/07/23 05:45:09;;;;;;;6.38;1.20;;;;;;;25.34;32.56;98918.25;5054066;28;20105;-52
2021/07/23 05:47:34;;;;;;;5.40;1.17;;;;;;;25.29;32.46;98918.13;5054339;28;20112;-50
2021/07/23 05:50:00;;;;;;;5.30;1.17;;;;;;;25.16;32.63;98911.00;5054529;28;20033;-52
2021/07/23 05:52:26;;;;;;;5.25;1.27;;;;;;;25.08;32.77;98904.03;5053657;28;20036;-51
2021/07/23 05:54:51;;;;;;;5.95;1.27;;;;;;;25.25;33.11;98914.19;5054171;28;20115;-48
2021/07/23 05:57:17;;;;;;;5.35;1.20;;;;;;;26.26;30.96;98903.72;5054219;28;20128;-48
2021/07/23 05:59:47;;;;;;;5.03;1.08;;;;;;;29.23;26.59;98910.00;5054068;28;20124;-49
2021/07/23 06:02:13;;;;;;;4.20;1.33;;;;;;;31.87;22.70;98906.06;5054078;28;20021;-48
2021/07/23 06:04:39;;;;;;;5.28;1.20;;;;;;;33.31;21.01;98897.41;5053481;28;20059;-50
2021/07/23 06:07:05;;;;;;;3.38;1.23;;;;;;;33.91;20.21;98890.44;5054076;28;20025;-48
2021/07/23 06:09:31;;;;;;;4.35;1.23;;;;;;;33.93;19.96;98879.03;5054085;28;20427;-52
2021/07/23 06:11:56;;;;;;;5.63;0.90;;;;;;;33.19;20.46;98888.69;5053690;28;20082;-51
2021/07/23 06:14:22;;;;;;;5.07;1.35;;;;;;;32.96;21.35;98890.41;5053392;28;20364;-53
2021/07/23 06:16:47;;;;;;;4.50;1.38;;;;;;;32.59;21.77;98887.19;5053750;28;20060;-53
2021/07/23 06:19:13;;;;;;;6.63;1.20;;;;;;;31.53;22.83;98884.66;5052852;28;20487;-51
2021/07/23 06:21:38;;;;;;;10.20;1.25;;;;;;;30.35;24.69;98886.72;5053513;28;20067;-51
2021/07/23 06:24:04;;;;;;;5.20;1.30;;;;;;;29.15;26.17;98884.88;5052868;28;20121;-50
2021/07/23 06:26:29;;;;;;;7.75;1.48;;;;;;;28.14;28.13;98883.72;5053312;28;20484;-49
2021/07/23 06:28:55;;;;;;;6.70;1.40;;;;;;;27.48;29.80;98890.22;5053385;28;20063;-52
2021/07/23 06:31:20;;;;;;;8.50;1.55;;;;;;;27.05;30.17;98890.03;5053042;28;20439;-52
2021/07/23 06:33:47;;;;;;;10.55;1.60;;;;;;;27.78;29.40;98891.69;5053084;28;20025;-53
2021/07/23 06:36:12;;;;;;;8.57;1.60;;;;;;;29.72;26.17;98877.59;5053448;28;20033;-52
2021/07/23 06:38:38;;;;;;;4.53;1.08;;;;;;;31.28;24.38;98872.66;5053297;28;20036;-52
2021/07/23 06:41:07;;;;;;;8.98;1.70;;;;;;;34.83;20.15;98868.84;5052640;28;20102;-52
2021/07/23 06:43:33;;;;;;;7.28;1.42;;;;;;;35.57;18.63;98870.63;5052678;28;20136;-51
2021/07/23 06:46:01;;;;;;;6.35;1.30;;;;;;;34.97;19.12;98860.50;5052286;28;20041;-54
2021/07/23 06:48:26;;;;;;;10.93;1.55;;;;;;;34.81;19.94;98863.59;5051513;28;20422;-51
2021/07/23 06:50:51;;;;;;;4.53;1.50;;;;;;;35.51;18.88;98866.31;5052825;28;20117;-51
2021/07/23 06:53:18;;;;;;;4.40;1.33;;;;;;;36.31;18.09;98867.69;5052479;28;20044;-51
2021/07/23 06:55:44;;;;;;;6.28;1.50;;;;;;;36.76;17.76;98858.41;5051824;28;20029;-55
2021/07/23 06:58:09;;;;;;;8.82;1.58;;;;;;;37.15;16.94;98853.13;5050966;28;20535;-55
2021/07/23 07:00:35;;;;;;;5.05;1.65;;;;;;;39.12;15.04;98852.06;5050443;28;20036;-50
2021/07/23 07:03:01;;;;;;;5.35;1.50;;;;;;;40.91;13.72;98846.81;5051306;28;20040;-55
2021/07/23 07:05:28;;;;;;;3.58;1.35;;;;;;;41.05;14.00;98843.63;5050965;28;20090;-53
2021/07/23 07:07:53;;;;;;;5.25;1.35;;;;;;;42.11;12.49;98844.72;5051752;28;20109;-54
2021/07/23 07:10:19;;;;;;;5.30;1.40;;;;;;;43.45;11.48;98837.47;5052730;28;20536;-54
2021/07/23 07:12:44;;;;;;;8.65;1.77;;;;;;;45.00;10.42;98840.69;5052262;28;20044;-50
2021/07/23 07:15:10;;;;;;;2.08;1.17;;;;;;;45.34;10.25;98839.91;5048951;28;20041;-52
2021/07/23 07:17:36;;;;;;;6.13;1.63;;;;;;;44.17;11.04;98832.47;5043572;28;20036;-51
2021/07/23 07:20:02;;;;;;;3.67;1.48;;;;;;;43.05;11.79;98829.34;5033428;28;20035;-49
2021/07/23 07:22:28;;;;;;;4.00;1.48;;;;;;;43.54;11.23;98819.56;5032339;28;20022;-48
2021/07/23 07:24:53;;;;;;;3.90;1.50;;;;;;;46.04;9.59;98820.53;5034263;28;20524;-51
2021/07/23 07:27:19;;;;;;;2.95;1.45;;;;;;;47.63;8.31;98820.81;5040738;28;20444;-52
2021/07/23 07:29:45;;;;;;;4.60;1.25;;;;;;;47.25;8.37;98815.38;5043406;28;20443;-55
2021/07/23 07:32:11;;;;;;;2.65;1.40;;;;;;;46.42;8.95;98804.31;5031331;28;20104;-55
2021/07/23 07:34:37;;;;;;;2.75;1.15;;;;;;;45.63;9.61;98810.00;5031983;28;20065;-54
2021/07/23 07:37:04;;;;;;;4.88;1.50;;;;;;;46.89;8.88;98818.03;5032223;28;20385;-54
2021/07/23 07:39:30;;;;;;;6.28;1.70;;;;;;;47.56;8.08;98809.44;5031841;28;20476;-56
2021/07/23 07:41:55;;;;;;;4.97;1.70;;;;;;;46.76;8.52;98808.22;5031709;28;20473;-52
2021/07/23 07:44:21;;;;;;;5.65;1.40;;;;;;;44.74;9.55;98797.94;5031980;28;20025;-55
2021/07/23 07:46:47;;;;;;;2.33;1.40;;;;;;;42.15;11.66;98806.25;5032059;28;20029;-56
2021/07/23 07:49:12;;;;;;;5.65;1.45;;;;;;;40.29;13.20;98807.53;5034128;28;20028;-52
2021/07/23 07:51:38;;;;;;;6.50;1.42;;;;;;;38.78;15.37;98812.75;5038871;28;20239;-53
2021/07/23 07:54:03;;;;;;;7.97;1.40;;;;;;;37.18;16.29;98800.25;5031612;28;20467;-54
2021/07/23 07:56:29;;;;;;;5.28;1.23;;;;;;;35.80;17.98;98802.97;5032402;28;20036;-51
2021/07/23 07:58:55;;;;;;;5.35;1.40;;;;;;;34.83;18.76;98800.16;5034606;28;20029;-62
2021/07/23 08:01:20;;;;;;;4.95;1.30;;;;;;;34.29;20.03;98797.88;5033778;28;20655;-54
2021/07/23 08:03:46;;;;;;;3.47;1.33;;;;;;;33.74;20.78;98787.47;5043946;28;20039;-59
2021/07/23 08:06:27;;;;;;;3.17;1.27;;;;;;;33.50;21.20;98805.88;5051569;28;20029;-59
2021/07/23 08:08:54;;;;;;;5.95;1.60;;;;;;;32.56;23.60;98807.44;5031097;28;20040;-60
2021/07/23 08:11:19;;;;;;;6.68;1.48;;;;;;;31.11;26.91;98819.63;5041983;28;20028;-58
2021/07/23 08:13:45;;;;;;;4.43;1.50;;;;;;;29.98;29.79;98829.88;5040344;28;20091;-51
2021/07/23 08:16:12;;;;;;;6.35;1.42;;;;;;;28.91;31.16;98819.22;5038527;28;20026;-56
2021/07/23 08:18:38;;;;;;;4.32;1.40;;;;;;;28.22;32.63;98832.91;5036918;28;20030;-56
2021/07/23 08:21:05;;;;;;;5.60;1.65;;;;;;;27.52;35.02;98841.94;5036984;28;20477;-57
2021/07/23 08:23:31;;;;;;;1.92;1.30;;;;;;;26.82;37.07;98805.97;5048567;28;20033;-56
2021/07/23 08:25:57;;;;;;;4.85;1.40;;;;;;;26.68;37.00;98827.47;5041320;28;20029;-58
2021/07/23 08:28:22;;;;;;;3.72;1.40;;;;;;;26.61;37.30;98797.47;5039381;28;20064;-57
2021/07/23 08:30:48;;;;;;;3.13;1.42;;;;;;;27.12;36.18;98818.41;5040292;28;20468;-60
2021/07/23 08:33:14;;;;;;;2.75;1.60;;;;;;;27.73;35.54;98820.09;5038339;28;20034;-59
2021/07/23 08:35:41;;;;;;;3.38;1.50;;;;;;;28.50;33.58;98806.06;5038518;28;20021;-56
2021/07/23 08:38:07;;;;;;;5.03;1.55;;;;;;;29.14;33.34;98795.03;5039632;28;20032;-57
2021/07/23 08:40:32;;;;;;;5.47;1.90;;;;;;;29.44;32.24;98787.97;5038437;28;20025;-57
2021/07/23 08:43:00;;;;;;;4.45;1.58;;;;;;;29.34;30.77;98789.56;5040049;28;20029;-60
2021/07/23 08:45:26;;;;;;;2.50;1.33;;;;;;;28.99;31.28;98785.66;5039827;28;20493;-60
2021/07/23 08:47:52;;;;;;;4.00;1.77;;;;;;;28.82;31.65;98787.78;5037608;28;20065;-59
2021/07/23 08:50:17;;;;;;;4.10;1.80;;;;;;;28.54;31.02;98781.59;5039779;28;20389;-58
2021/07/23 08:52:45;;;;;;;2.78;1.35;;;;;;;28.38;30.86;98789.78;5039404;28;20033;-59
2021/07/23 08:55:16;;;;;;;4.15;1.77;;;;;;;28.21;31.17;98779.81;5037823;28;20033;-60
2021/07/23 08:57:42;;;;;;;3.20;1.45;;;;;;;27.94;31.47;98785.38;5039191;28;20041;-56
2021/07/23 09:00:10;;;;;;;4.57;1.63;;;;;;;27.67;32.05;98788.16;5039991;28;20034;-56
2021/07/23 09:02:58;;;;;;;3.58;1.60;;;;;;;27.53;31.66;98780.38;5036677;28;20552;-56
2021/07/23 09:05:37;;;;;;;4.90;1.70;;;;;;;27.09;32.53;98773.03;5039553;28;20025;-58
2021/07/23 09:08:13;;;;;;;3.25;1.60;;;;;;;26.86;32.84;98782.41;5038948;28;20033;-57
2021/07/23 09:10:39;;;;;;;4.22;1.60;;;;;;;26.65;33.90;98782.16;5038361;28;20045;-56
2021/07/23 09:13:08;;;;;;;4.30;1.38;;;;;;;26.70;32.99;98773.16;5036084;28;20026;-56
2021/07/23 09:15:42;;;;;;;6.95;1.50;;;;;;;26.90;32.61;98775.31;5042392;28;20037;-61
2021/07/23 09:18:20;;;;;;;2.92;1.30;;;;;;;26.92;32.18;98763.00;5036195;28;20132;-58
2021/07/23 09:21:16;;;;;;;5.93;1.80;;;;;;;27.07;31.99;98769.72;5049352;28;20025;-59
2021/07/23 09:23:42;;;;;;;3.50;2.05;;;;;;;26.77;32.16;98763.63;5037145;28;20068;-58
2021/07/23 09:26:07;;;;;;;6.25;1.63;;;;;;;26.56;32.72;98759.81;5032147;28;20112;-59
2021/07/23 09:28:38;;;;;;;2.95;1.55;;;;;;;26.30;32.29;98764.16;5038716;28;20033;-59
2021/07/23 09:31:07;;;;;;;1.95;1.58;;;;;;;26.01;32.31;98756.84;5038159;28;20042;-56
2021/07/23 09:33:41;;;;;;;9.25;2.08;;;;;;;25.69;33.00;98749.25;5045822;28;20377;-68
2021/07/23 09:36:13;;;;;;;5.50;1.80;;;;;;;25.62;32.74;98748.56;5034958;28;20071;-60
2021/07/23 09:38:43;;;;;;;5.50;1.60;;;;;;;25.88;32.56;98752.56;5030017;28;20327;-59
2021/07/23 09:41:24;;;;;;;6.68;2.05;;;;;;;26.00;31.91;98719.53;5030802;28;20428;-61
2021/07/23 09:44:01;;;;;;;2.42;1.60;;;;;;;26.53;31.18;98738.34;5030036;28;20385;-61
2021/07/23 09:46:29;;;;;;;2.53;1.73;;;;;;;26.59;30.47;98695.34;5028581;28;20025;-57
2021/07/23 09:48:56;;;;;;;3.05;1.88;;;;;;;26.83;28.94;98744.47;5030154;28;20056;-60
2021/07/23 09:51:24;;;;;;;4.90;1.55;;;;;;;26.68;29.57;98743.19;5030010;28;20041;-58
2021/07/23 09:53:50;;;;;;;4.95;2.00;;;;;;;26.34;28.86;98741.41;5043077;28;20037;-57
2021/07/23 09:56:19;;;;;;;5.00;2.00;;;;;;;26.11;28.43;98738.88;5049597;28;20052;-58
2021/07/23 09:58:52;;;;;;;7.70;1.88;;;;;;;26.05;28.93;98743.47;5050341;28;20037;-59
2021/07/23 10:01:41;;;;;;;5.35;2.03;;;;;;;26.53;28.47;98740.28;5050012;28;20025;-61
2021/07/23 10:04:37;;;;;;;4.95;2.15;;;;;;;26.86;28.13;98746.72;5043566;28;20093;-60
2021/07/23 10:07:24;;;;;;;3.55;1.75;;;;;;;27.10;27.28;98739.00;5029524;28;20043;-59
2021/07/23 10:09:54;;;;;;;4.00;2.00;;;;;;;27.15;27.50;98740.97;5042820;28;20029;-58
2021/07/23 10:12:20;;;;;;;2.45;2.03;;;;;;;27.20;27.67;98743.75;5049506;28;20082;-60
2021/07/23 10:14:47;;;;;;;3.13;2.20;;;;;;;27.27;27.57;98733.41;5051419;28;20091;-58
2021/07/23 10:17:13;;;;;;;2.50;1.95;;;;;;;27.39;27.62;98738.72;5036721;28;20068;-60
2021/07/23 10:19:40;;;;;;;7.45;2.03;;;;;;;27.28;27.49;98734.22;5035864;28;20036;-61
2021/07/23 10:22:06;;;;;;;5.47;2.10;;;;;;;27.12;27.69;98730.50;5037748;28;20111;-59
2021/07/23 10:24:36;;;;;;;5.70;1.80;;;;;;;27.02;27.73;98720.25;5031578;28;20437;-62
2021/07/23 10:27:11;;;;;;;6.70;2.42;;;;;;;27.17;26.61;98736.03;5033465;28;20473;-59
2021/07/23 10:29:41;;;;;;;2.22;1.77;;;;;;;27.41;25.62;98743.94;5043518;28;20041;-61
2021/07/23 10:32:33;;;;;;;5.50;2.05;;;;;;;27.73;25.30;98756.88;5034692;28;20041;-60
2021/07/23 10:35:01;;;;;;;5.07;1.92;;;;;;;27.45;26.66;98781.66;5041252;28;20091;-59
2021/07/23 10:37:29;;;;;;;17.60;2.45;;;;;;;26.81;30.29;98807.88;5052495;28;20033;-58
2021/07/23 10:40:11;;;;;;;11.65;3.08;;;;;;;25.96;33.58;98805.31;5052412;28;20037;-61
2021/07/23 10:42:38;;;;;;;8.50;1.98;;;;;;;24.89;36.25;98839.56;5053031;28;20053;-60
2021/07/23 10:45:09;;;;;;;5.88;2.20;;;;;;;24.26;37.60;98837.38;5052598;28;20058;-60
2021/07/23 10:47:40;;;;;;;9.38;1.83;;;;;;;23.75;38.48;98843.25;5040969;28;20108;-60
2021/07/23 10:50:08;;;;;;;3.08;1.80;;;;;;;23.41;40.07;98856.56;5014706;28;20044;-59
2021/07/23 10:52:37;;;;;;;5.05;2.10;;;;;;;22.95;41.81;98858.81;5031389;28;20034;-60
2021/07/23 10:55:22;;;;;;;3.92;2.40;;;;;;;22.79;41.54;98857.56;5032920;28;20045;-60
2021/07/23 10:58:08;;;;;;;5.57;2.10;;;;;;;22.69;41.41;98862.69;5032650;28;20039;-61
2021/07/23 11:00:47;;;;;;;6.03;2.30;;;;;;;22.73;41.24;98853.84;5030145;28;20030;-62
2021/07/23 11:03:39;;;;;;;4.95;2.50;;;;;;;22.71;41.84;98849.66;5032462;28;20083;-61
2021/07/23 11:06:21;;;;;;;3.88;2.63;;;;;;;22.40;42.74;98849.53;5032435;28;20032;-61
2021/07/23 11:08:48;;;;;;;8.10;2.80;;;;;;;21.86;45.99;98839.13;5031589;28;20105;-59
2021/07/23 11:11:14;;;;;;;7.78;3.10;;;;;;;21.61;46.71;98848.06;5031257;28;20168;-60
2021/07/23 11:13:40;;;;;;;4.07;2.90;;;;;;;21.56;46.78;98847.06;5030757;28;20033;-59
2021/07/23 11:16:13;;;;;;;3.88;3.03;;;;;;;21.62;45.39;98819.78;5032466;28;20128;-60
2021/07/23 11:18:59;;;;;;;5.78;3.20;;;;;;;22.20;44.33;98856.03;5032667;28;20057;-59
2021/07/23 11:21:36;;;;;;;3.95;2.20;;;;;;;22.46;43.67;98859.59;5030417;28;20087;-60
2021/07/23 11:24:09;;;;;;;3.85;2.80;;;;;;;22.82;42.65;98843.44;5037775;28;20025;-58
2021/07/23 11:26:36;;;;;;;4.82;2.88;;;;;;;23.11;42.49;98838.25;5042883;28;20029;-59
2021/07/23 11:29:01;;;;;;;4.60;3.10;;;;;;;23.17;42.04;98841.97;5032756;28;20033;-59
2021/07/23 11:31:33;;;;;;;4.45;2.95;;;;;;;23.20;41.05;98853.22;5032112;28;20037;-59
2021/07/23 11:34:22;;;;;;;5.88;3.50;;;;;;;23.07;41.37;98854.25;5032347;28;20412;-61
2021/07/23 11:36:48;;;;;;;4.68;3.42;;;;;;;23.03;42.28;98853.03;5030823;28;20064;-60